Time;durP1;ratioP1;P1;durP2;ratioP2;P2;SDS_P1;SDS_P2;PMS_P1;PMS_P2;Temp;Humidity;BMP_temperature;BMP_pressure;BME280_temperature;BME280_humidity;BME280_pressure;Samples;Min_cycle;Max_cycle;Signal;HPM_P1;HPM_P2
2022/11/12 00:02:09;;;;;;;34.83;28.05;;;3.30;99.90;;;;;;4951827;29;20047;-75
2022/11/12 00:04:53;;;;;;;30.38;23.30;;;3.30;99.90;;;;;;4951665;29;20050;-75
2022/11/12 00:07:37;;;;;;;19.23;16.30;;;3.20;99.90;;;;;;4951856;29;20103;-78
2022/11/12 00:10:22;;;;;;;17.05;15.10;;;3.20;99.90;;;;;;4951619;29;20054;-77
2022/11/12 00:13:07;;;;;;;19.02;15.57;;;3.30;99.90;;;;;;4951722;29;20047;-77
2022/11/12 00:15:52;;;;;;;19.75;15.27;;;3.30;99.90;;;;;;4932599;29;20127;-77
2022/11/12 00:18:36;;;;;;;16.33;14.05;;;3.30;99.90;;;;;;4932602;29;20508;-77
2022/11/12 00:21:21;;;;;;;16.58;14.73;;;3.20;99.90;;;;;;4932385;29;20059;-76
2022/11/12 00:24:06;;;;;;;24.55;19.70;;;3.20;99.90;;;;;;4932344;29;20055;-77
2022/11/12 00:26:50;;;;;;;24.85;20.52;;;3.10;99.90;;;;;;4932343;29;20080;-74
2022/11/12 00:29:35;;;;;;;16.90;15.00;;;3.10;99.90;;;;;;4943736;29;20051;-76
2022/11/12 00:32:19;;;;;;;15.73;12.52;;;3.00;99.90;;;;;;4951034;29;20058;-77
2022/11/12 00:35:05;;;;;;;19.67;16.83;;;3.10;99.90;;;;;;4951392;29;20060;-78
2022/11/12 00:37:54;;;;;;;13.88;11.95;;;3.20;99.90;;;;;;4951571;29;20445;-77
2022/11/12 00:40:38;;;;;;;13.13;12.00;;;3.30;99.90;;;;;;4951071;29;20090;-77
2022/11/12 00:43:23;;;;;;;9.43;8.50;;;3.20;99.90;;;;;;4951204;29;20122;-77
2022/11/12 00:46:08;;;;;;;11.23;7.95;;;3.10;99.90;;;;;;4949773;29;20078;-77
2022/11/12 00:48:52;;;;;;;7.75;7.05;;;3.20;99.90;;;;;;4950754;29;20050;-77
2022/11/12 00:51:38;;;;;;;6.70;5.93;;;3.20;99.90;;;;;;4936424;29;20152;-78
2022/11/12 00:54:22;;;;;;;7.32;6.63;;;3.00;99.90;;;;;;4951194;29;20516;-76
2022/11/12 00:57:06;;;;;;;8.52;7.75;;;3.00;99.90;;;;;;4951187;29;20042;-77
2022/11/12 00:59:50;;;;;;;8.55;7.72;;;2.90;99.90;;;;;;4936230;29;20151;-77
2022/11/12 01:02:34;;;;;;;11.18;7.70;;;2.90;99.90;;;;;;4936317;29;20061;-77
2022/11/12 01:05:19;;;;;;;7.55;6.85;;;2.90;99.90;;;;;;4951056;29;20042;-77
2022/11/12 01:08:04;;;;;;;8.68;7.13;;;2.80;99.90;;;;;;4950768;29;20076;-76
2022/11/12 01:10:48;;;;;;;8.98;8.18;;;2.80;99.90;;;;;;4950672;29;20090;-77
2022/11/12 01:13:32;;;;;;;8.68;7.00;;;2.80;99.90;;;;;;4950825;29;20058;-77
2022/11/12 01:16:19;;;;;;;8.95;8.15;;;2.80;99.90;;;;;;4950611;29;20054;-77
2022/11/12 01:19:06;;;;;;;8.55;7.15;;;2.80;99.90;;;;;;4935730;29;20182;-77
2022/11/12 01:21:51;;;;;;;9.38;8.43;;;2.80;99.90;;;;;;4950534;29;20564;-77
2022/11/12 01:24:35;;;;;;;12.38;11.32;;;2.90;99.90;;;;;;4950599;29;20042;-77
2022/11/12 01:27:20;;;;;;;13.52;11.45;;;2.90;99.90;;;;;;4936651;29;20102;-77
2022/11/12 01:30:05;;;;;;;16.58;11.65;;;2.90;99.90;;;;;;4950173;29;20087;-75
2022/11/12 01:32:51;;;;;;;12.18;10.82;;;2.90;99.90;;;;;;4950322;29;20050;-77
2022/11/12 01:35:35;;;;;;;9.15;8.20;;;2.90;99.90;;;;;;4950260;29;20043;-76
2022/11/12 01:38:19;;;;;;;9.95;9.02;;;2.80;99.90;;;;;;4949888;29;20465;-76
2022/11/12 01:41:05;;;;;;;11.15;10.15;;;2.80;99.90;;;;;;4950222;29;20063;-77
2022/11/12 01:44:12;;;;;;;13.27;9.48;;;2.70;99.90;;;;;;4950000;29;20064;-77
2022/11/12 01:47:27;;;;;;;10.57;8.98;;;2.90;99.90;;;;;;4950346;29;20095;-77
2022/11/12 01:50:29;;;;;;;15.85;14.00;;;3.00;99.90;;;;;;4950048;29;20076;-77
2022/11/12 01:53:14;;;;;;;19.90;13.48;;;3.20;99.90;;;;;;4950077;29;20063;-77
2022/11/12 01:56:01;;;;;;;15.48;13.85;;;3.30;99.90;;;;;;4949875;29;20072;-77
2022/11/12 01:58:48;;;;;;;13.30;11.93;;;3.40;99.90;;;;;;4949846;29;20047;-77
2022/11/12 02:01:33;;;;;;;13.38;12.10;;;3.40;99.90;;;;;;4949848;29;20049;-77
2022/11/12 02:04:18;;;;;;;11.27;10.27;;;3.40;99.90;;;;;;4949863;29;20075;-76
2022/11/12 02:07:04;;;;;;;12.27;11.23;;;3.40;99.90;;;;;;4949882;29;20118;-76
2022/11/12 02:09:49;;;;;;;11.55;10.48;;;3.40;99.90;;;;;;4949987;29;20078;-76
2022/11/12 02:15:40;;;;;;;14.30;12.93;;;3.40;99.90;;;;;;4949787;29;20042;-76
2022/11/12 02:18:24;;;;;;;10.90;9.90;;;3.40;99.90;;;;;;4949599;29;20498;-76
2022/11/12 02:21:08;;;;;;;11.13;10.20;;;3.40;99.90;;;;;;4935192;29;20055;-76
2022/11/12 02:24:01;;;;;;;11.25;10.18;;;3.40;99.90;;;;;;4949155;29;20632;-77
2022/11/12 02:26:48;;;;;;;11.60;10.55;;;3.40;99.90;;;;;;4949499;29;20171;-76
2022/11/12 02:29:33;;;;;;;10.07;8.77;;;3.40;99.90;;;;;;4949408;29;20413;-76
2022/11/12 02:32:17;;;;;;;11.23;10.13;;;3.30;99.90;;;;;;4949283;29;20046;-76
2022/11/12 02:35:03;;;;;;;9.60;8.70;;;3.10;99.90;;;;;;4949289;29;20050;-76
2022/11/12 02:37:47;;;;;;;11.80;10.68;;;3.10;99.90;;;;;;4949293;29;20063;-77
2022/11/12 02:40:33;;;;;;;11.00;8.90;;;3.00;99.90;;;;;;4934442;29;20192;-77
2022/11/12 02:43:17;;;;;;;8.68;7.70;;;2.90;99.90;;;;;;4949221;29;20075;-76
2022/11/12 02:46:01;;;;;;;9.80;8.50;;;2.90;99.90;;;;;;4934688;29;20047;-76
2022/11/12 02:48:45;;;;;;;9.27;8.30;;;2.80;99.90;;;;;;4948781;29;20050;-76
2022/11/12 02:51:30;;;;;;;8.23;7.53;;;2.70;99.90;;;;;;4948414;29;20070;-76
2022/11/12 02:54:15;;;;;;;8.63;7.75;;;2.70;99.90;;;;;;4934331;29;20055;-76
2022/11/12 02:56:59;;;;;;;8.20;7.50;;;2.60;99.90;;;;;;4934505;29;20039;-77
2022/11/12 02:59:43;;;;;;;12.48;8.32;;;2.60;99.90;;;;;;4948699;29;20046;-76
2022/11/12 03:02:27;;;;;;;9.48;8.50;;;2.50;99.90;;;;;;4940601;29;20047;-76
2022/11/12 03:05:11;;;;;;;9.77;8.98;;;2.50;99.90;;;;;;4947687;29;20571;-76
2022/11/12 03:08:00;;;;;;;13.25;9.85;;;2.50;99.90;;;;;;4948720;29;20039;-77
2022/11/12 03:10:45;;;;;;;12.53;10.40;;;2.40;99.90;;;;;;4948253;29;20042;-76
2022/11/12 03:13:29;;;;;;;11.75;10.23;;;2.40;99.90;;;;;;4933982;29;20327;-77
2022/11/12 03:16:13;;;;;;;14.50;9.43;;;2.40;99.90;;;;;;4948624;29;20066;-76
2022/11/12 03:18:58;;;;;;;12.27;9.88;;;2.40;99.90;;;;;;4934020;29;20039;-76
2022/11/12 03:21:43;;;;;;;8.75;7.55;;;2.40;99.90;;;;;;4948191;29;20107;-76
2022/11/12 03:24:27;;;;;;;10.63;9.57;;;2.40;99.90;;;;;;4948504;29;20046;-76
2022/11/12 03:27:12;;;;;;;9.52;8.48;;;2.40;99.90;;;;;;4948529;29;20074;-77
2022/11/12 03:29:56;;;;;;;13.27;11.48;;;2.40;99.90;;;;;;4933802;29;20079;-76
2022/11/12 03:32:41;;;;;;;13.07;10.82;;;2.40;99.90;;;;;;4948429;29;20042;-76
2022/11/12 03:35:26;;;;;;;10.07;9.00;;;2.50;99.90;;;;;;4948082;29;20109;-76
2022/11/12 03:38:11;;;;;;;9.90;8.95;;;2.50;99.90;;;;;;4948359;29;20068;-76
2022/11/12 03:40:55;;;;;;;12.07;10.40;;;2.50;99.90;;;;;;4948333;29;20066;-76
2022/11/12 03:43:39;;;;;;;11.55;10.55;;;2.60;99.90;;;;;;4948294;29;20046;-76
2022/11/12 03:46:23;;;;;;;11.57;10.48;;;2.80;99.90;;;;;;4948519;29;20082;-76
2022/11/12 03:49:07;;;;;;;10.90;9.57;;;2.90;99.90;;;;;;4948013;29;20127;-76
2022/11/12 03:51:52;;;;;;;10.85;9.75;;;2.90;99.90;;;;;;4948367;29;20062;-76
2022/11/12 03:54:36;;;;;;;12.43;9.02;;;2.80;99.90;;;;;;4933745;29;20452;-76
2022/11/12 03:57:20;;;;;;;11.32;9.90;;;2.70;99.90;;;;;;4948323;29;20043;-76
2022/11/12 04:00:06;;;;;;;9.55;8.82;;;2.70;99.90;;;;;;4933709;29;20062;-76
2022/11/12 04:02:51;;;;;;;9.90;8.60;;;2.60;99.90;;;;;;4933889;29;20063;-76
2022/11/12 04:08:39;;;;;;;9.32;8.52;;;2.60;99.90;;;;;;4948219;29;20055;-76
2022/11/12 04:11:24;;;;;;;8.68;8.07;;;2.50;99.90;;;;;;4948145;29;20047;-76
2022/11/12 04:14:08;;;;;;;9.45;8.55;;;2.40;99.90;;;;;;4933447;29;20066;-76
2022/11/12 04:22:59;;;;;;;9.25;8.45;;;2.30;99.90;;;;;;4951731;29;20042;-76
2022/11/12 04:31:49;;;;;;;10.05;9.20;;;2.20;99.90;;;;;;4939802;29;20084;-76
2022/11/12 04:34:34;;;;;;;9.77;8.93;;;2.20;99.90;;;;;;4951731;29;20107;-76
2022/11/12 04:37:19;;;;;;;9.68;8.43;;;2.30;99.90;;;;;;4936771;29;20092;-76
2022/11/12 04:44:58;;;;;;;9.75;8.88;;;2.20;99.90;;;;;;4951395;29;20116;-76
2022/11/12 04:46:17;;;;;;;12.27;11.07;;;2.20;99.90;;;;;;4951204;29;20070;-76
2022/11/12 04:49:02;;;;;;;13.32;11.20;;;2.20;99.90;;;;;;4951190;29;20366;-76
2022/11/12 04:52:05;;;;;;;11.32;10.30;;;2.20;99.90;;;;;;4951084;29;20519;-75
2022/11/12 04:54:51;;;;;;;13.23;10.07;;;2.20;99.90;;;;;;4951288;29;20059;-76
2022/11/12 04:57:37;;;;;;;15.13;10.25;;;2.20;99.90;;;;;;4951139;29;20096;-77
2022/11/12 05:00:21;;;;;;;12.32;9.50;;;2.20;99.90;;;;;;4936655;29;20047;-75
2022/11/12 05:03:06;;;;;;;9.93;8.93;;;2.20;99.90;;;;;;4951225;29;20050;-76
2022/11/12 05:05:50;;;;;;;16.20;11.15;;;2.20;99.90;;;;;;4932108;29;20070;-76
2022/11/12 05:08:34;;;;;;;11.30;8.38;;;2.10;99.90;;;;;;4950043;29;20051;-76
2022/11/12 05:11:19;;;;;;;12.13;11.00;;;2.10;99.90;;;;;;4950918;29;20549;-76
2022/11/12 05:14:03;;;;;;;11.48;9.05;;;2.10;99.90;;;;;;4936476;29;20056;-76
2022/11/12 05:16:48;;;;;;;9.15;8.40;;;2.00;99.90;;;;;;4950733;29;20062;-76
2022/11/12 05:19:33;;;;;;;11.50;10.02;;;2.00;99.90;;;;;;4950459;29;20046;-76
2022/11/12 05:22:18;;;;;;;12.13;9.50;;;2.00;99.90;;;;;;4950631;29;20090;-76
2022/11/12 05:25:02;;;;;;;11.30;9.32;;;2.00;99.90;;;;;;4950694;29;20110;-76
2022/11/12 05:27:47;;;;;;;10.02;9.00;;;1.80;99.90;;;;;;4936228;29;20060;-76
2022/11/12 05:30:31;;;;;;;10.60;8.98;;;1.90;99.90;;;;;;4950365;29;20042;-76
2022/11/12 05:33:16;;;;;;;10.80;9.65;;;1.90;99.90;;;;;;4935472;29;20095;-76
2022/11/12 05:36:00;;;;;;;11.18;10.20;;;1.90;99.90;;;;;;4935924;29;20035;-76
2022/11/12 05:38:44;;;;;;;12.48;9.98;;;2.00;99.90;;;;;;4935739;29;20163;-75
2022/11/12 05:41:29;;;;;;;11.57;9.15;;;2.00;99.90;;;;;;4950507;29;20039;-75
2022/11/12 05:44:13;;;;;;;11.00;10.00;;;2.00;99.90;;;;;;4936120;29;20050;-76
2022/11/12 05:46:58;;;;;;;11.68;10.65;;;2.00;99.90;;;;;;4963386;29;20099;-76
2022/11/12 05:49:42;;;;;;;12.93;10.60;;;1.90;99.90;;;;;;4944806;29;20062;-77
2022/11/12 05:52:26;;;;;;;10.90;9.85;;;1.90;99.90;;;;;;4921545;29;20046;-76
2022/11/12 05:55:11;;;;;;;9.43;8.63;;;1.90;99.90;;;;;;4925923;29;20038;-76
2022/11/12 05:57:55;;;;;;;10.02;9.13;;;2.00;99.90;;;;;;4935727;29;20035;-75
2022/11/12 06:00:40;;;;;;;10.70;9.65;;;1.90;99.90;;;;;;4966101;29;20097;-76
2022/11/12 06:03:25;;;;;;;10.50;9.50;;;1.90;99.90;;;;;;4953436;29;20062;-76
2022/11/12 06:06:10;;;;;;;10.93;9.90;;;2.00;99.90;;;;;;4954143;29;20054;-76
2022/11/12 06:08:54;;;;;;;11.80;10.55;;;2.00;99.90;;;;;;4953662;29;20043;-75
2022/11/12 06:11:39;;;;;;;25.33;21.20;;;1.90;99.90;;;;;;4940703;29;20159;-77
2022/11/12 06:14:23;;;;;;;17.90;16.05;;;1.90;99.90;;;;;;4962292;29;20515;-76
2022/11/12 06:17:08;;;;;;;23.90;21.70;;;1.90;99.90;;;;;;4968280;29;20047;-76
2022/11/12 06:19:52;;;;;;;34.28;31.23;;;1.90;99.90;;;;;;4929706;29;20158;-76
2022/11/12 06:22:36;;;;;;;24.20;21.90;;;1.80;99.90;;;;;;4922914;29;20043;-75
2022/11/12 06:25:21;;;;;;;18.15;15.75;;;1.80;99.90;;;;;;4968456;29;20042;-76
2022/11/12 06:28:05;;;;;;;10.73;9.73;;;1.80;99.90;;;;;;4933047;29;20042;-76
2022/11/12 06:30:49;;;;;;;11.10;10.13;;;1.80;99.90;;;;;;4927807;29;20058;-76
2022/11/12 06:33:34;;;;;;;11.82;10.93;;;1.80;99.90;;;;;;4948404;29;20103;-76
2022/11/12 06:36:19;;;;;;;9.02;8.10;;;1.80;99.90;;;;;;4945210;29;20039;-76
2022/11/12 06:39:04;;;;;;;9.45;8.65;;;1.80;99.90;;;;;;4934066;29;20505;-76
2022/11/12 06:41:48;;;;;;;11.15;7.95;;;1.90;99.90;;;;;;4933973;29;20043;-76
2022/11/12 06:44:33;;;;;;;10.02;8.98;;;1.90;99.90;;;;;;4922292;29;20056;-76
2022/11/12 06:47:17;;;;;;;8.27;7.50;;;1.80;99.90;;;;;;4934034;29;20206;-76
2022/11/12 06:50:02;;;;;;;9.88;8.73;;;1.80;99.90;;;;;;4948659;29;20035;-77
2022/11/12 06:52:46;;;;;;;8.45;7.70;;;1.70;99.90;;;;;;4930706;29;20066;-76
2022/11/12 06:55:31;;;;;;;10.23;9.27;;;1.70;99.90;;;;;;4946307;29;20507;-77
2022/11/12 06:58:16;;;;;;;8.55;7.75;;;1.70;99.90;;;;;;4942169;29;20066;-75
2022/11/12 07:01:11;;;;;;;9.38;8.45;;;1.70;99.90;;;;;;4938587;29;20046;-76
2022/11/12 07:03:56;;;;;;;8.02;7.25;;;1.70;99.90;;;;;;4948789;29;20046;-76
2022/11/12 07:06:40;;;;;;;13.38;10.07;;;1.80;99.90;;;;;;4953533;29;20067;-75
2022/11/12 07:09:25;;;;;;;12.25;11.13;;;2.60;99.90;;;;;;4935652;29;20053;-77
2022/11/12 07:12:09;;;;;;;13.10;11.90;;;2.90;99.90;;;;;;4942702;29;20050;-77
2022/11/12 07:14:54;;;;;;;12.48;11.43;;;2.90;99.90;;;;;;4931953;29;20041;-77
2022/11/12 07:17:38;;;;;;;12.32;10.73;;;2.90;99.90;;;;;;4943298;29;20051;-77
2022/11/12 07:20:23;;;;;;;13.25;10.88;;;2.80;99.90;;;;;;4961887;29;20095;-77
2022/11/12 07:23:07;;;;;;;13.30;11.98;;;2.90;99.90;;;;;;4934080;29;20058;-77
2022/11/12 07:25:58;;;;;;;22.65;14.00;;;2.90;99.90;;;;;;4947455;29;20037;-77
2022/11/12 07:28:44;;;;;;;13.95;12.55;;;2.90;99.90;;;;;;4924676;29;20039;-77
2022/11/12 07:31:29;;;;;;;13.98;12.65;;;3.00;99.90;;;;;;4948364;29;20046;-76
2022/11/12 07:34:13;;;;;;;13.32;11.93;;;3.10;99.90;;;;;;4949053;29;20122;-76
2022/11/12 07:36:58;;;;;;;18.85;15.40;;;3.20;99.90;;;;;;4961859;29;20047;-76
2022/11/12 07:39:42;;;;;;;19.67;15.48;;;3.60;99.90;;;;;;4967291;29;20428;-76
2022/11/12 07:42:26;;;;;;;16.02;14.45;;;4.00;99.90;;;;;;4967385;29;20555;-77
2022/11/12 07:45:11;;;;;;;16.27;13.07;;;4.30;99.90;;;;;;4967574;29;20075;-77
2022/11/12 07:47:58;;;;;;;14.93;13.40;;;4.60;99.90;;;;;;4953841;29;20070;-77
2022/11/12 07:50:42;;;;;;;13.85;12.55;;;4.80;99.90;;;;;;4914943;29;20111;-77
2022/11/12 07:53:26;;;;;;;15.80;14.23;;;5.20;99.90;;;;;;4923943;29;20430;-77
2022/11/12 07:56:19;;;;;;;14.43;12.90;;;5.80;99.90;;;;;;4950464;29;20039;-76
2022/11/12 07:59:04;;;;;;;15.68;14.15;;;7.00;99.90;;;;;;4952230;29;20054;-77
2022/11/12 08:01:48;;;;;;;12.63;11.35;;;8.40;99.90;;;;;;4951616;29;20134;-76
2022/11/12 08:04:32;;;;;;;12.13;10.90;;;9.40;99.90;;;;;;4951333;29;20038;-77
2022/11/12 08:07:17;;;;;;;15.05;8.20;;;10.00;99.90;;;;;;4937418;29;20053;-76
2022/11/12 08:10:02;;;;;;;16.20;9.23;;;10.60;99.90;;;;;;4951876;29;20079;-76
2022/11/12 08:12:46;;;;;;;12.45;9.52;;;12.30;99.90;;;;;;4951782;29;20075;-76
2022/11/12 08:15:31;;;;;;;21.45;9.02;;;13.50;99.90;;;;;;4951805;29;20035;-77
2022/11/12 08:18:17;;;;;;;16.85;8.38;;;14.60;99.90;;;;;;4937074;29;20071;-76
2022/11/12 08:21:02;;;;;;;18.38;7.55;;;15.70;99.90;;;;;;4951721;29;20067;-76
2022/11/12 08:23:47;;;;;;;7.80;5.82;;;16.60;99.90;;;;;;4951391;29;20077;-76
2022/11/12 08:26:31;;;;;;;12.90;7.20;;;17.10;99.90;;;;;;4951630;29;20115;-76
2022/11/12 08:29:16;;;;;;;39.67;7.07;;;17.90;99.90;;;;;;4950857;29;20045;-76
2022/11/12 08:32:00;;;;;;;10.43;5.57;;;16.70;99.90;;;;;;4951400;29;20046;-76
2022/11/12 08:34:44;;;;;;;5.80;5.22;;;16.10;99.90;;;;;;4936271;29;20046;-76
2022/11/12 08:37:29;;;;;;;4.78;4.38;;;16.20;99.90;;;;;;4951356;29;20038;-76
2022/11/12 08:40:13;;;;;;;9.27;5.70;;;17.00;99.90;;;;;;4936134;29;20062;-75
2022/11/12 08:43:02;;;;;;;7.28;5.63;;;17.60;99.90;;;;;;4951053;29;20076;-74
2022/11/12 08:45:49;;;;;;;8.65;6.93;;;19.30;99.90;;;;;;4951018;29;20056;-75
2022/11/12 08:48:34;;;;;;;10.35;5.45;;;19.80;98.30;;;;;;4950508;29;20465;-75
2022/11/12 08:51:19;;;;;;;5.35;4.85;;;20.50;97.70;;;;;;4950764;29;20144;-76
2022/11/12 08:54:04;;;;;;;7.88;5.00;;;20.20;96.10;;;;;;4950754;29;20091;-75
2022/11/12 08:56:48;;;;;;;13.45;6.07;;;19.30;97.30;;;;;;4950025;29;20457;-76
2022/11/12 08:59:32;;;;;;;7.88;4.63;;;20.30;96.80;;;;;;4936456;29;20099;-76
2022/11/12 09:02:17;;;;;;;5.28;4.78;;;20.40;96.50;;;;;;4951010;29;20050;-76
2022/11/12 09:05:02;;;;;;;8.85;4.82;;;21.10;96.20;;;;;;4950650;29;20561;-75
2022/11/12 09:07:46;;;;;;;6.65;6.05;;;22.50;94.30;;;;;;4935174;29;20051;-76
2022/11/12 09:10:31;;;;;;;8.90;5.38;;;23.10;94.20;;;;;;4950339;29;20043;-75
2022/11/12 09:13:17;;;;;;;5.78;5.15;;;23.30;93.60;;;;;;4935989;29;20062;-76
2022/11/12 09:16:06;;;;;;;11.75;5.85;;;23.10;94.00;;;;;;4950607;29;20090;-76
2022/11/12 09:18:50;;;;;;;6.20;5.20;;;22.00;94.10;;;;;;4935401;29;20115;-75
2022/11/12 09:21:34;;;;;;;8.77;4.80;;;22.10;94.30;;;;;;4950214;29;20043;-76
2022/11/12 09:24:19;;;;;;;4.72;4.32;;;22.40;94.20;;;;;;4948964;29;20404;-75
2022/11/12 09:27:03;;;;;;;7.45;5.22;;;20.80;95.10;;;;;;4934870;29;20051;-75
2022/11/12 09:29:47;;;;;;;7.03;4.57;;;21.60;94.40;;;;;;4935548;29;20078;-75
2022/11/12 09:32:32;;;;;;;8.63;4.80;;;21.20;95.10;;;;;;4948348;29;20047;-75
2022/11/12 09:35:16;;;;;;;5.28;4.78;;;20.80;95.20;;;;;;4948222;29;20041;-76
2022/11/12 09:38:00;;;;;;;4.88;4.32;;;22.10;96.80;;;;;;4949044;29;20072;-76
2022/11/12 09:41:00;;;;;;;6.47;4.80;;;21.90;94.50;;;;;;4949871;29;20067;-76
2022/11/12 09:43:48;;;;;;;6.60;5.32;;;21.80;94.50;;;;;;4949607;29;20551;-76
2022/11/12 09:46:54;;;;;;;7.63;5.38;;;21.60;94.50;;;;;;4947527;29;20076;-76
2022/11/12 09:49:46;;;;;;;6.55;5.80;;;21.20;94.70;;;;;;4948290;29;20066;-76
2022/11/12 09:52:32;;;;;;;6.07;5.07;;;21.00;95.00;;;;;;4948653;29;20050;-76
2022/11/12 09:55:34;;;;;;;6.03;4.85;;;22.10;94.60;;;;;;4947919;29;20042;-76
2022/11/12 09:58:19;;;;;;;11.98;5.75;;;22.40;94.10;;;;;;4948500;29;20043;-76
2022/11/12 10:01:23;;;;;;;8.25;6.15;;;21.20;94.70;;;;;;4949183;29;20095;-76
2022/11/12 10:04:50;;;;;;;16.98;5.00;;;20.50;95.60;;;;;;4943326;29;20038;-75
2022/11/12 10:07:53;;;;;;;11.20;5.65;;;20.90;95.10;;;;;;4937559;29;20397;-76
2022/11/12 10:10:47;;;;;;;5.40;4.68;;;21.00;95.20;;;;;;4947218;29;20066;-75
2022/11/12 10:14:01;;;;;;;4.75;4.35;;;20.90;95.40;;;;;;4948313;29;20071;-76
2022/11/12 10:17:07;;;;;;;6.00;5.32;;;21.30;95.30;;;;;;4932275;29;20043;-75
2022/11/12 10:20:18;;;;;;;6.63;4.45;;;21.40;94.80;;;;;;4946760;29;20056;-75
2022/11/12 10:23:17;;;;;;;8.85;6.10;;;21.70;94.90;;;;;;4948768;29;20154;-76
2022/11/12 10:26:13;;;;;;;7.35;5.40;;;22.30;95.10;;;;;;4948916;29;20090;-76
2022/11/12 10:29:23;;;;;;;7.13;6.40;;;22.00;94.80;;;;;;4948456;29;20038;-75
2022/11/12 10:32:14;;;;;;;4.95;4.47;;;22.20;94.90;;;;;;4935139;29;20127;-76
2022/11/12 10:34:58;;;;;;;5.43;4.82;;;21.80;95.70;;;;;;4949250;29;20034;-76
2022/11/12 10:37:58;;;;;;;6.05;5.50;;;21.60;95.30;;;;;;4933968;29;20051;-76
2022/11/12 10:40:42;;;;;;;;;;;21.50;96.00;;;;;;4949281;29;20143;-76
2022/11/12 10:43:26;;;;;;;5.15;4.75;;;21.60;95.80;;;;;;4955660;29;19917;-76
2022/11/12 10:46:32;;;;;;;6.18;5.13;;;21.30;96.20;;;;;;4930026;29;20056;-76
2022/11/12 10:49:16;;;;;;;8.82;6.57;;;21.30;96.20;;;;;;4929931;29;20072;-76
2022/11/12 10:52:01;;;;;;;7.22;4.50;;;20.20;97.30;;;;;;4929848;29;20499;-76
2022/11/12 10:54:45;;;;;;;8.65;5.15;;;20.70;97.10;;;;;;4929889;29;20047;-76
2022/11/12 10:57:29;;;;;;;8.13;5.30;;;19.80;97.50;;;;;;4945122;29;20095;-76
2022/11/12 11:00:17;;;;;;;6.13;5.05;;;20.10;97.50;;;;;;4933066;29;20047;-76
2022/11/12 11:03:06;;;;;;;7.22;4.88;;;20.50;97.90;;;;;;4948680;29;20094;-76
2022/11/12 11:06:15;;;;;;;4.55;4.15;;;19.70;97.20;;;;;;4947767;29;20072;-76
2022/11/12 11:09:12;;;;;;;4.88;4.47;;;19.60;98.30;;;;;;4936676;29;20130;-76
2022/11/12 11:11:56;;;;;;;8.57;5.85;;;19.30;98.40;;;;;;4951321;29;20460;-76
2022/11/12 11:14:43;;;;;;;6.47;4.93;;;18.70;99.20;;;;;;4934280;29;20042;-76
2022/11/12 11:17:27;;;;;;;5.15;4.75;;;19.00;99.30;;;;;;4937037;29;20051;-76
2022/11/12 11:20:25;;;;;;;5.85;4.95;;;18.60;99.30;;;;;;4933408;29;20050;-77
2022/11/12 11:23:49;;;;;;;6.10;5.50;;;17.80;99.80;;;;;;4941445;29;20051;-76
2022/11/12 11:27:16;;;;;;;6.53;5.88;;;18.30;99.90;;;;;;4933756;29;20047;-76
2022/11/12 11:30:18;;;;;;;7.82;5.68;;;18.80;99.70;;;;;;4936260;29;20068;-76
2022/11/12 11:33:22;;;;;;;5.53;5.05;;;19.00;99.40;;;;;;4945497;29;20099;-76
2022/11/12 11:36:21;;;;;;;8.35;5.30;;;18.60;99.60;;;;;;4958267;29;20063;-76
2022/11/12 11:39:17;;;;;;;;;;;17.90;99.90;;;;;;4942630;29;20059;-76
2022/11/12 11:42:34;;;;;;;6.85;4.80;;;18.80;99.90;;;;;;4954502;29;20279;-77
2022/11/12 11:45:55;;;;;;;8.27;4.22;;;19.20;99.90;;;;;;4927528;29;21111;-75
2022/11/12 11:48:58;;;;;;;8.35;5.68;;;19.60;99.40;;;;;;4932430;29;20067;-76
2022/11/12 11:51:54;;;;;;;7.80;5.70;;;19.70;99.10;;;;;;4948598;29;20106;-76
2022/11/12 11:54:53;;;;;;;7.70;5.68;;;19.70;98.90;;;;;;4945827;29;20074;-76
2022/11/12 11:58:03;;;;;;;9.90;6.07;;;19.20;99.00;;;;;;4942924;29;20071;-76
2022/11/12 12:01:18;;;;;;;7.45;5.30;;;19.30;99.60;;;;;;4938203;29;20070;-76
2022/11/12 12:04:42;;;;;;;19.33;6.05;;;18.90;99.80;;;;;;4954292;29;20055;-76
2022/11/12 12:08:02;;;;;;;6.07;5.47;;;18.40;99.90;;;;;;4938404;29;20468;-76
2022/11/12 12:11:02;;;;;;;6.05;5.22;;;18.70;99.90;;;;;;4934794;29;20034;-76
2022/11/12 12:14:09;;;;;;;7.10;4.38;;;18.90;99.90;;;;;;4933180;29;20067;-76
2022/11/12 12:17:35;;;;;;;7.97;5.95;;;19.50;99.90;;;;;;4941746;29;20046;-76
2022/11/12 12:20:36;;;;;;;4.93;4.45;;;19.20;99.90;;;;;;4946479;29;20055;-75
2022/11/12 12:23:36;;;;;;;6.88;4.45;;;19.10;99.90;;;;;;4945653;29;21449;-76
2022/11/12 12:26:46;;;;;;;6.97;5.57;;;19.40;99.90;;;;;;4947334;29;20083;-75
2022/11/12 12:29:43;;;;;;;5.10;4.60;;;19.70;99.90;;;;;;4921964;29;20074;-76
2022/11/12 12:32:44;;;;;;;6.55;5.53;;;19.80;99.90;;;;;;4947961;29;20046;-76
2022/11/12 12:35:39;;;;;;;12.00;6.63;;;20.00;99.70;;;;;;4933492;29;20039;-76
2022/11/12 12:38:45;;;;;;;7.25;5.05;;;19.90;99.70;;;;;;4947613;29;20046;-75
2022/11/12 12:41:46;;;;;;;7.47;6.80;;;19.40;99.90;;;;;;4942572;29;20051;-76
2022/11/12 12:45:04;;;;;;;5.78;4.63;;;18.90;99.90;;;;;;4951166;29;20042;-76
2022/11/12 12:47:50;;;;;;;8.80;5.05;;;18.80;99.90;;;;;;4951384;29;20051;-76
2022/11/12 12:50:38;;;;;;;10.07;5.95;;;18.40;99.90;;;;;;4936980;29;20046;-74
2022/11/12 12:53:26;;;;;;;5.88;5.28;;;18.20;99.90;;;;;;4951137;29;20104;-76
2022/11/12 12:56:13;;;;;;;6.32;5.45;;;18.20;99.90;;;;;;4950823;29;20050;-76
2022/11/12 12:59:02;;;;;;;6.78;4.90;;;18.30;99.90;;;;;;4936689;29;20067;-75
2022/11/12 13:01:58;;;;;;;6.25;5.53;;;18.20;99.90;;;;;;4950680;29;20050;-76
2022/11/12 13:04:56;;;;;;;9.93;4.82;;;18.30;99.90;;;;;;4950646;29;20054;-76
2022/11/12 13:07:47;;;;;;;9.57;6.13;;;18.00;99.90;;;;;;4950649;29;20075;-75
2022/11/12 13:10:38;;;;;;;4.97;4.43;;;17.90;99.90;;;;;;4950790;29;20053;-75
2022/11/12 13:13:27;;;;;;;5.07;4.57;;;17.50;99.90;;;;;;4950649;29;20062;-75
2022/11/12 13:16:51;;;;;;;7.78;6.07;;;17.10;99.90;;;;;;4936054;29;20091;-75
2022/11/12 13:19:38;;;;;;;9.13;6.80;;;16.90;99.90;;;;;;4933102;29;20392;-75
2022/11/12 13:22:23;;;;;;;11.48;7.32;;;17.10;99.90;;;;;;4950465;29;20095;-76
2022/11/12 13:25:07;;;;;;;7.93;6.18;;;17.10;99.90;;;;;;4949822;29;20190;-76
2022/11/12 13:27:51;;;;;;;4.43;4.03;;;17.10;99.90;;;;;;4940267;29;20046;-76
2022/11/12 13:30:35;;;;;;;5.28;4.68;;;17.10;99.90;;;;;;4950413;29;20042;-76
2022/11/12 13:33:29;;;;;;;11.68;6.35;;;16.90;99.90;;;;;;4950222;29;20059;-76
2022/11/12 13:36:26;;;;;;;8.23;5.57;;;17.00;99.90;;;;;;4950163;29;20038;-76
2022/11/12 13:39:15;;;;;;;7.55;5.38;;;16.70;99.90;;;;;;4950146;29;20062;-75
2022/11/12 13:45:12;;;;;;;10.30;5.38;;;16.50;99.90;;;;;;4931252;29;20917;-76
2022/11/12 13:47:57;;;;;;;11.73;5.55;;;16.30;99.90;;;;;;4930756;29;20047;-75
2022/11/12 13:50:47;;;;;;;8.55;6.05;;;16.10;99.90;;;;;;4947713;29;20046;-75
2022/11/12 13:53:32;;;;;;;;;;;16.20;99.90;;;;;;4947153;29;20043;-76
2022/11/12 13:56:31;;;;;;;6.30;5.20;;;16.10;99.90;;;;;;4953229;29;20380;-75
2022/11/12 13:59:21;;;;;;;7.80;5.97;;;16.10;99.90;;;;;;4948670;29;20031;-75
2022/11/12 14:02:37;;;;;;;10.57;6.28;;;16.00;99.90;;;;;;4948537;29;20086;-76
2022/11/12 14:05:26;;;;;;;7.30;5.80;;;16.00;99.90;;;;;;4944042;29;20079;-76
2022/11/12 14:08:28;;;;;;;8.02;6.28;;;15.90;99.90;;;;;;4948679;29;20508;-76
2022/11/12 14:11:33;;;;;;;6.72;5.63;;;15.80;99.90;;;;;;4931135;29;20054;-76
2022/11/12 14:14:20;;;;;;;11.88;5.78;;;15.80;99.90;;;;;;4918643;29;20055;-75
2022/11/12 14:17:19;;;;;;;10.05;5.70;;;15.70;99.90;;;;;;4934371;29;20049;-76
2022/11/12 14:20:34;;;;;;;10.35;6.43;;;15.60;99.90;;;;;;4948904;29;20063;-75
2022/11/12 14:23:22;;;;;;;6.35;5.72;;;15.60;99.90;;;;;;4949374;29;20490;-76
2022/11/12 14:26:10;;;;;;;6.85;5.05;;;15.60;99.90;;;;;;4946642;29;20042;-75
2022/11/12 14:28:55;;;;;;;7.68;5.35;;;15.50;99.90;;;;;;4930159;29;20467;-75
2022/11/12 14:31:39;;;;;;;6.88;4.45;;;15.40;99.90;;;;;;4930344;29;20099;-76
2022/11/12 14:34:33;;;;;;;7.90;4.72;;;15.40;99.90;;;;;;4921161;29;20054;-75
2022/11/12 14:37:37;;;;;;;6.82;5.22;;;15.30;99.90;;;;;;4949136;29;20042;-76
2022/11/12 14:40:24;;;;;;;8.27;5.32;;;15.20;99.90;;;;;;4948505;29;20058;-75
2022/11/12 14:43:23;;;;;;;8.85;6.13;;;15.20;99.90;;;;;;4949046;29;20107;-75
2022/11/12 14:46:20;;;;;;;5.38;4.97;;;15.10;99.90;;;;;;4934356;29;20062;-75
2022/11/12 14:49:23;;;;;;;9.27;7.47;;;15.00;99.90;;;;;;4949102;29;20042;-75
2022/11/12 14:52:16;;;;;;;6.65;6.15;;;14.90;99.90;;;;;;4946483;29;20038;-75
2022/11/12 14:55:14;;;;;;;13.85;6.60;;;14.80;99.90;;;;;;4929746;29;20073;-75
2022/11/12 14:57:59;;;;;;;7.60;6.55;;;14.70;99.90;;;;;;4937322;29;20556;-75
2022/11/12 15:00:46;;;;;;;7.65;7.00;;;14.60;99.90;;;;;;4937761;29;20401;-75
2022/11/12 15:03:31;;;;;;;12.40;7.63;;;14.50;99.90;;;;;;4968016;29;20058;-75
2022/11/12 15:06:26;;;;;;;8.98;8.07;;;14.40;99.90;;;;;;4967306;28;20078;-75